Latest Coastal Weather Observations for Orbost

IDV60701

Issued at 4:11 am EST Friday 31 July 2015 (issued every 10 minutes, with the page automatically refreshed every 10 minutes)

About coastal observations | Map of coastal stations | Coastal observations for VIC | Marine services | Other Formats
Station Details ID: 084145 Name: ORBOST Lat: -37.69 Lon: 148.47 Height: 62.65 m
Data from the previous 72 hours. | See also: Recent months at Orbost
Date/Time
EST
Temp

°C
Wind Pressure Rain
since 9am
mm
Weather Cloud Vis
km
Sea
Height
m
Swell
Dir
 
Speed
knots
Gust
knots
hPa Trend Height
m
Period
s
Dir
31/04:00am 9.3 W 7 12 1017.5 - 0.2 - - - - - - -
31/03:30am 9.3 W 6 10 1017.4 - 0.2 - - - - - - -
31/03:00am 9.3 W 7 11 1017.2 - 0.2 Rain - - - - - -
31/02:30am 9.6 W 6 10 1017.0 - 0.0 - - - - - - -
31/02:00am 9.5 WSW 6 8 1016.8 - 0.0 - - - - - - -
31/01:30am 10.9 WSW 9 14 1016.4 - 0.0 - - - - - - -
31/01:00am 11.9 WNW 9 16 1015.4 - 0.0 - - - - - - -
31/12:30am 12.8 WNW 10 18 1015.0 - 0.0 - - - - - - -
31/12:00am 12.7 WNW 11 18 1014.8 - 0.0 - - - - - - -
 
Date/Time
EST
Temp

°C
Wind Pressure Rain
since 9am
mm
Weather Cloud Vis
km
Sea
Height
m
Swell
Dir
 
Speed
knots
Gust
knots
hPa Trend Height
m
Period
s
Dir
30/11:30pm 12.4 WNW 9 15 1014.6 - 0.0 - - - - - - -
30/11:00pm 12.4 WNW 9 12 1014.3 - 0.0 - - - - - - -
30/10:30pm 12.9 NW 8 13 1014.3 - 0.0 - - - - - - -
30/10:00pm 13.0 NW 4 8 1013.8 - 0.0 - - - - - - -
30/09:30pm 13.5 NNW 6 12 1013.3 - 0.0 - - - - - - -
30/09:00pm 13.7 NW 8 12 1013.0 - 0.0 - - - - - - -
30/08:30pm 14.1 NW 10 18 1012.3 - 0.0 - - - - - - -
30/08:00pm 13.6 NW 8 18 1012.0 - 0.0 - - - - - - -
30/07:30pm - N 6 12 1012.3 - 0.0 - - - - - - -
30/07:00pm - NNW 3 5 1013.0 - 0.0 - - - - - - -
30/06:30pm - N 4 5 1012.8 - 0.0 - - - - - - -
30/06:00pm - N 4 5 1012.9 - 0.0 - - - - - - -
30/05:30pm - NNE 2 4 1013.3 - 0.0 - - - - - - -
30/05:00pm - NW 1 2 1013.7 - 0.0 - - - - - - -
30/04:30pm - CALM 0 0 1014.0 - 0.0 - - - - - - -
30/04:00pm - ENE 3 5 1013.7 - 0.0 - - - - - - -
30/03:30pm - CALM 0 2 1014.2 - 0.0 - - - - - - -
30/03:00pm 14.6 NW 2 3 1014.3 - 0.0 - - - - - - -
30/02:30pm 14.7 SSW 1 2 1014.6 - 0.0 - - - - - - -
30/02:00pm 14.2 WNW 2 3 1015.5 - 0.0 - - - - - - -
30/01:30pm 14.2 WNW 3 4 1016.0 - 0.0 - - - - - - -
30/01:00pm 14.0 NW 4 6 1016.6 - 0.0 - - - - - - -
30/12:30pm 14.3 NW 4 7 1017.8 - 0.0 - - - - - - -
30/12:00pm 14.2 NW 5 9 1018.6 - 0.0 - - - - - - -
30/11:30am 12.3 NW 1 2 1019.5 - 0.0 - - - - - - -
30/11:00am 10.8 SW 2 3 1020.3 - 0.0 - - - - - - -
30/10:30am 9.9 SW 2 4 1020.5 - 0.0 - - - - - - -
30/10:00am 8.6 CALM 0 0 1020.6 - 0.0 - - - - - - -
30/09:30am 6.8 SSW 1 1 1021.1 - 0.0 - - - - - - -
30/09:00am 5.5 CALM 0 0 1021.6 - 0.0 - - - - - - -
30/08:30am 4.0 WNW 1 2 1022.2 - 0.0 - - - - - - -
30/08:00am 3.0 CALM 0 1 1022.3 - 0.0 - - - - - - -
30/07:30am 3.2 CALM 0 0 1022.5 - 0.0 - - - - - - -
30/07:00am 3.7 CALM 0 1 1022.7 - 0.0 - - - - - - -
30/06:30am 3.3 NE 3 4 1022.8 - 0.0 - - - - - - -
30/06:00am 3.1 CALM 0 0 1023.2 - 0.0 - - - - - - -
30/05:30am 3.5 N 2 3 1023.3 - 0.0 - - - - - - -
30/05:00am 4.2 NNW 2 2 1023.3 - 0.0 - - - - - - -
30/04:30am 4.6 CALM 0 0 1023.6 - 0.0 - - - - - - -
30/04:00am 4.5 CALM 0 0 1023.9 - 0.0 - - - - - - -
30/03:30am 4.7 NNE 2 3 1024.2 - 0.0 - - - - - - -
30/03:00am 4.7 NNW 2 3 1025.1 - 0.0 - - - - - - -
30/02:30am 4.4 CALM 0 1 1025.3 - 0.0 - - - - - - -
30/02:00am 5.3 NNE 1 2 1025.5 - 0.0 - - - - - - -
30/01:30am 5.0 N 3 4 1025.8 - 0.0 - - - - - - -
30/01:00am 5.8 CALM 0 0 1026.0 - 0.0 - - - - - - -
30/12:30am 6.2 N 3 3 1026.4 - 0.0 - - - - - - -
30/12:00am 5.5 NNE 2 4 1027.1 - 0.0 - - - - - - -
 
Date/Time
EST
Temp

°C
Wind Pressure Rain
since 9am
mm
Weather Cloud Vis
km
Sea
Height
m
Swell
Dir
 
Speed
knots
Gust
knots
hPa Trend Height
m
Period
s
Dir
29/11:30pm 5.3 WNW 1 2 1027.5 - 0.0 - - - - - - -
29/11:00pm 6.1 N 3 3 1027.7 - 0.0 - - - - - - -
29/10:30pm 6.4 N 2 3 1027.6 - 0.0 - - - - - - -
29/10:00pm 6.2 NNW 2 3 1028.2 - 0.0 - - - - - - -
29/09:30pm 5.3 NW 1 2 1028.3 - 0.0 - - - - - - -
29/09:00pm 6.5 CALM 0 0 1028.5 - 0.0 - - - - - - -
29/08:30pm 7.1 CALM 0 2 1028.6 - 0.0 - - - - - - -
29/08:00pm - ENE 2 3 1028.8 - 0.0 - - - - - - -
29/07:30pm - ENE 2 2 1029.0 - 0.0 - - - - - - -
29/07:00pm 7.2 NNE 1 3 1029.0 - 0.0 - - - - - - -
29/06:30pm 8.3 CALM 0 0 1029.4 - 0.0 - - - - - - -
29/06:00pm 8.7 CALM 0 0 1029.2 - 0.0 - - - - - - -
29/05:30pm 8.7 ENE 3 4 1028.8 - 0.0 - - - - - - -
29/05:00pm 9.4 E 2 2 1029.0 - 0.0 - - - - - - -
29/04:30pm 10.2 ESE 1 2 1029.4 - 0.0 - - - - - - -
29/04:00pm 10.6 SE 2 4 1029.5 - 0.0 - - - - - - -
29/03:30pm 11.0 SE 3 7 1029.4 - 0.0 - - - - - - -
29/03:00pm 12.2 S 4 8 1029.4 - 0.0 - - - - - - -
29/02:30pm 12.8 S 5 8 1029.7 - 0.0 - - - - - - -
29/02:00pm 13.4 S 4 6 1029.8 - 0.0 - - - - - - -
29/01:30pm 14.0 SSE 3 5 1029.8 - 0.0 - - - - - - -
29/01:00pm - S 3 6 1030.4 - 0.0 - - - - - - -
29/12:30pm 13.4 SW 2 5 1030.9 - 0.0 - - - - - - -
29/12:00pm 13.1 W 2 4 1031.8 - 0.0 - - - - - - -
29/11:30am 12.4 WNW 2 3 1032.6 - 0.0 - - - - - - -
29/11:00am 12.0 WNW 2 4 1033.0 - 0.0 - - - - - - -
29/10:30am 11.0 W 2 3 1033.3 - 0.0 - - - - - - -
29/10:00am 10.5 NW 3 5 1033.4 - 0.0 - - - - - - -
29/09:30am 9.0 WNW 2 3 1033.6 - 0.0 - - - - - - -
29/09:00am 8.5 NNW 3 4 1033.7 - 0.0 - - - - - - -
29/08:30am 6.4 N 2 2 1034.1 - 0.0 - - - - - - -
29/08:00am 5.0 N 2 2 1034.0 - 0.0 - - - - - - -
29/07:30am 3.6 NW 2 4 1033.7 - 0.0 - - - - - - -
29/07:00am 4.3 NNW 2 3 1033.5 - 0.0 - - - - - - -
29/06:30am 4.3 N 2 3 1033.1 - 0.0 - - - - - - -
29/06:00am 4.0 WNW 1 2 1033.0 - 0.0 - - - - - - -
29/05:30am 4.7 N 2 3 1032.9 - 0.0 - - - - - - -
29/05:00am 4.5 CALM 0 0 1032.9 - 0.0 - - - - - - -
29/04:30am 4.6 NNW 1 1 1032.8 - 0.0 - - - - - - -
29/04:00am 4.5 NW 2 2 1033.0 - 0.0 - - - - - - -
29/03:30am 5.7 NNW 2 2 1033.0 - 0.0 - - - - - - -
29/03:00am 6.7 N 4 5 1033.2 - 0.0 - - - - - - -
29/02:30am 6.2 NNW 4 5 1033.4 - 0.0 - - - - - - -
29/02:00am 7.2 N 4 5 1033.5 - 0.0 - - - - - - -
29/01:30am 6.7 NNW 3 4 1033.7 - 0.0 - - - - - - -
29/01:00am 6.8 NNW 4 5 1033.8 - 0.0 - - - - - - -
29/12:30am 7.2 NNW 4 6 1033.9 - 0.0 - - - - - - -
29/12:00am 7.5 NNW 3 5 1034.1 - 0.0 - - - - - - -
 
Date/Time
EST
Temp

°C
Wind Pressure Rain
since 9am
mm
Weather Cloud Vis
km
Sea
Height
m
Swell
Dir
 
Speed
knots
Gust
knots
hPa Trend Height
m
Period
s
Dir
28/11:30pm 7.7 NNW 3 5 1034.1 - 0.0 - - - - - - -
28/11:00pm 8.3 NW 4 6 1033.9 - 0.0 - - - - - - -
28/10:30pm 7.7 NNW 4 5 1033.8 - 0.0 - - - - - - -
28/10:00pm 8.3 NW 4 6 1033.9 - 0.0 - - - - - - -
28/09:30pm 8.4 NNW 4 6 1033.9 - 0.0 - - - - - - -
28/09:00pm 8.2 NW 3 5 1033.9 - 0.0 - - - - - - -
28/08:30pm 8.7 NW 4 5 1033.8 - 0.0 - - - - - - -
28/08:00pm 8.8 NNW 4 5 1033.7 - 0.0 - - - - - - -
28/07:30pm 8.8 N 4 6 1033.5 - 0.0 - - - - - - -
28/07:00pm 9.4 NNW 3 4 1033.3 - 0.0 - - - - - - -
28/06:30pm 8.8 NNW 3 4 1032.9 - 0.0 - - - - - - -
28/06:00pm 10.3 W 3 7 1032.6 - 0.0 - - - - - - -
28/05:30pm 10.8 W 4 6 1032.5 - 0.0 - - - - - - -
28/05:00pm 11.1 W 3 6 1032.2 - 0.0 - - - - - - -
28/04:30pm 11.8 W 6 9 1032.1 - 0.0 - - - - - - -
28/04:00pm 12.3 WSW 9 15 1032.1 - 0.0 - - - - - - -
28/03:30pm 12.7 W 8 13 1031.8 - 0.0 - - - - - - -
28/03:00pm 13.0 W 9 15 1031.8 - 0.0 - - - - - - -
28/02:30pm 12.8 W 10 15 1031.6 - 0.0 - - - - - - -
28/02:00pm 13.2 W 10 16 1031.7 - 0.0 - - - - - - -
28/01:30pm 13.2 W 13 20 1031.8 - 0.0 - - - - - - -
28/01:00pm 13.8 W 11 15 1032.0 - 0.0 - - - - - - -
28/12:30pm 13.5 W 10 15 1032.3 - 0.0 - - - - - - -
28/12:00pm 12.7 W 9 14 1032.7 - 0.0 - - - - - - -
28/11:30am 13.0 W 9 13 1033.0 - 0.0 - - - - - - -
28/11:00am 12.6 W 10 21 1033.2 - 0.0 - - - - - - -
28/10:30am 12.0 W 9 16 1033.4 - 0.0 - - - - - - -
28/10:00am 11.8 W 9 15 1033.3 - 0.0 - - - - - - -
28/09:30am 11.2 W 8 14 1033.0 - 0.0 - - - - - - -
28/09:00am 11.0 W 7 13 1032.7 - 0.0 - - - - - - -
28/08:30am 10.8 W 6 10 1032.3 - 0.0 - - - - - - -
28/08:00am 10.5 W 7 11 1032.1 - 0.0 - - - - - - -
28/07:30am 10.3 WNW 6 10 1031.7 - 0.0 - - - - - - -
28/07:00am 10.3 WNW 5 9 1031.4 - 0.0 - - - - - - -
28/06:30am 10.3 WNW 6 10 1030.9 - 0.0 - - - - - - -
28/06:00am 10.1 WNW 5 8 1030.6 - 0.0 - - - - - - -
28/05:30am 9.7 WNW 7 11 1030.1 - 0.0 - - - - - - -
28/05:00am 9.9 WNW 7 10 1029.8 - 0.0 - - - - - - -
28/04:30am 9.8 WNW 8 13 1029.6 - 0.0 - - - - - - -

Other Formats:

Comma delimited format used in spreadsheet applications
http://www.bom.gov.au/fwo/IDV60701/IDV60701.95918.axf

JavaScript Object Notation format (JSON) in row-major order
http://www.bom.gov.au/fwo/IDV60701/IDV60701.95918.json